createdAt,value
2023-03-07T17:35:51.422Z,36.47
2023-03-07T17:37:55.836Z,36.55
2023-03-07T17:40:00.341Z,36.35
2023-03-07T17:42:04.751Z,35.9
2023-03-07T17:44:09.082Z,35.39
2023-03-07T17:46:13.808Z,34.98
2023-03-07T17:48:18.208Z,35.64
2023-03-07T17:50:22.558Z,35.14
2023-03-07T17:52:27.004Z,34.63
2023-03-07T17:54:31.405Z,33.75
2023-03-07T17:56:35.838Z,33.5
2023-03-07T17:58:40.186Z,33.5
2023-03-07T18:00:44.667Z,33.76
2023-03-07T18:02:49.318Z,33.69
2023-03-07T18:04:53.706Z,33.85
2023-03-07T18:06:58.063Z,33.62
2023-03-07T18:09:02.592Z,32.23
2023-03-07T18:11:06.986Z,30.34
2023-03-07T18:13:11.947Z,32.31
2023-03-07T18:15:16.454Z,32.99
2023-03-07T18:17:20.786Z,33.04
2023-03-07T18:19:29.207Z,33.09
2023-03-07T18:21:33.556Z,33.26
2023-03-07T18:23:37.900Z,33.35
2023-03-07T18:25:42.255Z,33.42
2023-03-07T18:27:46.688Z,33.72
2023-03-07T18:29:51.129Z,33.87
2023-03-07T18:31:55.507Z,34.16
2023-03-07T18:33:59.855Z,34.25
2023-03-07T18:36:04.482Z,34.5
2023-03-07T18:38:08.843Z,34.65
2023-03-07T18:40:13.232Z,34.85
2023-03-07T18:42:17.720Z,34.1
2023-03-07T18:44:22.138Z,34.17
2023-03-07T18:46:26.717Z,32.97
2023-03-07T18:48:31.230Z,33.61
2023-03-07T18:50:35.647Z,33.75
2023-03-07T18:52:40.256Z,33.75
2023-03-07T18:54:44.632Z,33.87
2023-03-07T18:56:49.014Z,34.21
2023-03-07T18:58:53.365Z,34.23
2023-03-07T19:00:58.016Z,33.29
2023-03-07T19:03:02.395Z,33.27
2023-03-07T19:05:06.740Z,33.19
2023-03-07T19:07:11.209Z,32.99
2023-03-07T19:09:15.542Z,32.7
2023-03-07T19:11:19.959Z,32.84
2023-03-07T19:13:24.268Z,32.23
2023-03-07T19:15:28.767Z,33.52
2023-03-07T19:17:33.128Z,32.8
2023-03-07T19:19:37.501Z,32.05
2023-03-07T19:21:41.912Z,32.28
2023-03-07T19:23:46.265Z,32.33
2023-03-07T19:25:50.663Z,31.3
2023-03-07T19:27:55.084Z,31.03
2023-03-07T19:29:59.468Z,30.8
2023-03-07T19:32:04.223Z,30.94
2023-03-07T19:34:08.742Z,31.03
2023-03-07T19:36:13.694Z,31.38
2023-03-07T19:38:18.089Z,31.33
2023-03-07T19:40:22.450Z,31.6
2023-03-07T19:42:26.808Z,31.43
2023-03-07T19:44:31.233Z,31.59
2023-03-07T19:46:35.586Z,31.71
2023-03-07T19:48:42.675Z,31.77
2023-03-07T19:50:47.065Z,31.71
2023-03-07T19:52:51.501Z,31.17
2023-03-07T19:54:55.915Z,31.74
2023-03-07T19:57:00.290Z,31.84
2023-03-07T19:59:04.604Z,31.84
2023-03-07T20:01:09.111Z,31.6
2023-03-07T20:03:13.553Z,30.93
2023-03-07T20:05:18.089Z,31.95
2023-03-07T20:07:22.497Z,31.95
2023-03-07T20:09:26.855Z,32.31
2023-03-07T20:11:31.455Z,32.63
2023-03-07T20:13:35.913Z,32.68
2023-03-07T20:15:40.596Z,32.94
2023-03-07T20:17:45.107Z,33.13
2023-03-07T20:19:49.502Z,34.01
2023-03-07T20:21:53.925Z,34.17
2023-03-07T20:23:58.282Z,34.15
2023-03-07T20:26:02.752Z,33.32
2023-03-07T20:28:08.624Z,33.25
2023-03-07T20:30:13.057Z,33.12
2023-03-07T20:32:17.622Z,33.1
2023-03-07T20:34:25.469Z,33.09
2023-03-07T20:36:29.940Z,33.3
2023-03-07T20:38:34.317Z,33.49
2023-03-07T20:40:38.748Z,33.55
2023-03-07T20:42:43.182Z,33.57
2023-03-07T20:44:47.535Z,33.57
2023-03-07T20:46:51.956Z,33.7
2023-03-07T20:48:56.281Z,33.84
2023-03-07T20:51:00.652Z,33.84
2023-03-07T20:53:06.387Z,33.75
2023-03-07T20:55:11.767Z,33.74
2023-03-07T20:57:16.282Z,33.84
2023-03-07T20:59:20.664Z,33.83
2023-03-07T21:01:25.330Z,33.92
2023-03-07T21:03:29.947Z,33.96
2023-03-07T21:05:34.335Z,33.94
2023-03-07T21:07:38.777Z,34.12
2023-03-07T21:09:43.102Z,34.02
2023-03-07T21:11:47.606Z,34.07
2023-03-07T21:13:51.968Z,34.25
2023-03-07T21:15:56.523Z,34.18
2023-03-07T21:18:00.965Z,34.39
2023-03-07T21:20:05.320Z,34.44
2023-03-07T21:22:09.656Z,34.44
2023-03-07T21:24:14.126Z,34.33
2023-03-07T21:26:18.492Z,34.33
2023-03-07T21:28:22.884Z,34.41
2023-03-07T21:30:27.267Z,34.71
2023-03-07T21:32:31.788Z,34.52
2023-03-07T21:34:36.169Z,34.52
2023-03-07T21:36:40.549Z,34.48
2023-03-07T21:38:44.939Z,34.77
2023-03-07T21:40:49.447Z,34.72
2023-03-07T21:42:53.956Z,34.65
2023-03-07T21:44:58.393Z,34.45
2023-03-07T21:47:02.792Z,34.4
2023-03-07T21:49:07.155Z,34.35
2023-03-07T21:51:11.490Z,34.51
2023-03-07T21:53:15.830Z,34.42
2023-03-07T21:55:20.193Z,34.49
2023-03-07T21:57:24.552Z,34.59
2023-03-07T21:59:28.917Z,34.56
2023-03-07T22:01:33.494Z,34.69
2023-03-07T22:03:37.847Z,34.51
2023-03-07T22:05:42.323Z,34.33
2023-03-07T22:07:46.627Z,32.65
2023-03-07T22:09:51.051Z,32.46
2023-03-07T22:11:55.408Z,32.64
